createdAt,value
2023-03-30T00:00:56.627Z,16.34
2023-03-30T00:03:24.324Z,16.35
2023-03-30T00:06:04.103Z,16.44
2023-03-30T00:08:31.404Z,16.31
2023-03-30T00:11:03.134Z,15.80
2023-03-30T00:13:31.100Z,16.04
2023-03-30T00:15:59.924Z,16.05
2023-03-30T00:18:27.392Z,16.08
2023-03-30T00:20:55.862Z,16.14
2023-03-30T00:23:22.992Z,16.14
2023-03-30T00:25:50.550Z,16.25
2023-03-30T00:28:17.578Z,16.20
2023-03-30T00:30:44.712Z,16.04
2023-03-30T00:33:14.323Z,16.14
2023-03-30T00:35:41.233Z,16.18
2023-03-30T00:38:08.776Z,16.16
2023-03-30T00:40:38.533Z,16.33
2023-03-30T00:43:07.619Z,15.88
2023-03-30T00:45:41.227Z,16.25
2023-03-30T00:48:10.063Z,16.07
2023-03-30T00:50:39.364Z,16.04
2023-03-30T00:53:17.854Z,15.76
2023-03-30T00:55:46.842Z,15.58
2023-03-30T00:58:23.513Z,15.91
2023-03-30T01:00:53.496Z,15.81
2023-03-30T01:03:21.573Z,15.46
2023-03-30T01:05:50.638Z,15.85
2023-03-30T01:08:18.452Z,16.10
2023-03-30T01:10:46.317Z,16.00
2023-03-30T01:13:14.247Z,15.82
2023-03-30T01:15:48.022Z,16.47
2023-03-30T01:18:38.362Z,16.46
2023-03-30T01:21:25.967Z,16.10
2023-03-30T01:24:11.367Z,16.35
2023-03-30T01:26:48.703Z,15.67
2023-03-30T01:29:26.030Z,15.76
2023-03-30T01:31:53.421Z,16.37
2023-03-30T01:34:48.428Z,16.31
2023-03-30T01:37:18.883Z,16.22
2023-03-30T01:39:52.927Z,16.48
2023-03-30T01:42:39.185Z,16.39
2023-03-30T01:45:20.131Z,16.61
2023-03-30T01:47:53.936Z,16.34
2023-03-30T01:50:34.277Z,16.00
2023-03-30T01:53:20.268Z,15.85
2023-03-30T01:55:56.325Z,15.39
2023-03-30T01:58:32.171Z,15.96
2023-03-30T02:01:01.514Z,15.75
2023-03-30T02:03:33.560Z,15.55
2023-03-30T02:06:04.655Z,16.32
2023-03-30T02:08:33.702Z,16.05
2023-03-30T02:11:03.700Z,15.63
2023-03-30T02:13:32.716Z,16.13
2023-03-30T02:16:01.797Z,15.87
2023-03-30T02:18:30.727Z,15.99
2023-03-30T02:20:59.092Z,15.87
2023-03-30T02:23:36.532Z,15.97
2023-03-30T02:26:04.975Z,15.79
2023-03-30T02:28:32.766Z,15.79
2023-03-30T02:30:59.792Z,15.96
2023-03-30T02:33:26.974Z,15.95
2023-03-30T02:36:12.521Z,15.90
2023-03-30T02:38:48.570Z,15.90
2023-03-30T02:41:21.468Z,15.97
2023-03-30T02:43:48.926Z,16.03
2023-03-30T02:46:34.933Z,15.86
2023-03-30T02:49:02.356Z,16.15
2023-03-30T02:51:41.954Z,15.98
2023-03-30T02:54:25.972Z,16.02
2023-03-30T02:57:03.401Z,15.97
2023-03-30T02:59:40.819Z,15.89
2023-03-30T03:02:12.877Z,15.95
2023-03-30T03:04:43.676Z,15.75
2023-03-30T03:07:11.934Z,16.06
2023-03-30T03:09:39.432Z,16.22
2023-03-30T03:12:06.898Z,15.85
2023-03-30T03:14:34.676Z,15.57
2023-03-30T03:17:10.482Z,16.01
2023-03-30T03:19:37.801Z,15.90
2023-03-30T03:22:05.196Z,15.82
2023-03-30T03:24:34.262Z,15.87
2023-03-30T03:27:01.268Z,15.90
2023-03-30T03:29:28.236Z,16.29
2023-03-30T03:31:55.492Z,15.43
2023-03-30T03:34:31.444Z,15.79
2023-03-30T03:36:59.530Z,15.60
2023-03-30T03:39:27.707Z,15.95
2023-03-30T03:42:02.438Z,15.89
2023-03-30T03:44:29.389Z,15.65
2023-03-30T03:46:56.526Z,15.28
2023-03-30T03:49:25.176Z,15.97
2023-03-30T03:51:52.416Z,15.81
2023-03-30T03:54:20.005Z,15.94
2023-03-30T03:57:03.258Z,15.86
2023-03-30T03:59:30.468Z,16.05
2023-03-30T04:01:57.595Z,15.74
2023-03-30T04:04:24.682Z,15.73
2023-03-30T04:06:53.563Z,15.91
2023-03-30T04:09:22.211Z,15.52
2023-03-30T04:11:50.146Z,15.54
2023-03-30T04:14:17.652Z,15.33
2023-03-30T04:16:45.136Z,15.26
2023-03-30T04:19:13.536Z,15.47
2023-03-30T04:21:41.393Z,15.33
2023-03-30T04:24:12.183Z,15.02
2023-03-30T04:26:38.936Z,15.01
2023-03-30T04:29:08.143Z,15.02
2023-03-30T04:31:35.930Z,14.83
2023-03-30T04:34:02.697Z,15.18
2023-03-30T04:36:29.558Z,15.63
2023-03-30T04:38:59.787Z,15.52
2023-03-30T04:41:33.677Z,15.43
2023-03-30T04:44:01.608Z,15.57
2023-03-30T04:46:28.111Z,15.42
2023-03-30T04:48:54.958Z,15.47
2023-03-30T04:51:22.776Z,15.98
2023-03-30T04:53:49.713Z,15.70
2023-03-30T04:56:16.973Z,15.32
2023-03-30T04:58:47.152Z,15.21
2023-03-30T05:01:14.562Z,15.35
2023-03-30T05:03:41.711Z,15.38
2023-03-30T05:06:08.590Z,15.30
2023-03-30T05:08:35.182Z,15.61
2023-03-30T05:11:02.741Z,15.43
2023-03-30T05:13:29.620Z,15.11
2023-03-30T05:15:56.768Z,15.31
2023-03-30T05:18:23.582Z,15.38
2023-03-30T05:20:50.028Z,15.58
2023-03-30T05:23:16.807Z,15.55
2023-03-30T05:25:49.131Z,15.69
2023-03-30T05:28:17.222Z,15.63
2023-03-30T05:30:46.734Z,15.54
2023-03-30T05:33:13.532Z,15.84
2023-03-30T05:35:40.492Z,15.44
2023-03-30T05:38:09.772Z,15.67
2023-03-30T05:40:38.085Z,15.29
2023-03-30T05:43:05.645Z,15.67
2023-03-30T05:45:32.053Z,15.91
2023-03-30T05:47:58.649Z,16.17
2023-03-30T05:50:25.694Z,16.15
2023-03-30T05:52:53.960Z,16.11
2023-03-30T05:55:20.696Z,15.72
2023-03-30T05:57:48.606Z,15.47
2023-03-30T06:00:16.280Z,15.62
2023-03-30T06:02:43.521Z,15.51
2023-03-30T06:05:10.139Z,15.91
2023-03-30T06:07:37.531Z,15.80
2023-03-30T06:10:04.608Z,15.78
2023-03-30T06:12:31.763Z,15.89
2023-03-30T06:15:02.700Z,15.87
2023-03-30T06:17:30.502Z,15.65
2023-03-30T06:19:58.755Z,16.37
2023-03-30T06:22:25.639Z,16.88
2023-03-30T06:24:52.678Z,16.33
2023-03-30T06:27:19.513Z,16.15
2023-03-30T06:29:46.258Z,16.14
2023-03-30T06:32:13.072Z,15.93
2023-03-30T06:34:39.859Z,16.50
2023-03-30T06:37:06.984Z,16.17
2023-03-30T06:39:37.480Z,16.36
2023-03-30T06:42:05.648Z,16.46
2023-03-30T06:44:32.412Z,16.53
2023-03-30T06:46:58.984Z,16.89
2023-03-30T06:49:25.600Z,16.49
2023-03-30T06:51:52.156Z,16.84
2023-03-30T06:54:20.361Z,16.85
2023-03-30T06:56:48.144Z,17.29
2023-03-30T06:59:15.428Z,17.20
2023-03-30T07:01:42.615Z,17.22
2023-03-30T07:04:09.560Z,17.40
2023-03-30T07:06:36.174Z,17.02
2023-03-30T07:09:03.092Z,16.71
2023-03-30T07:11:29.679Z,17.02
2023-03-30T07:13:58.224Z,17.42
2023-03-30T07:16:25.247Z,17.51
2023-03-30T07:18:52.269Z,17.33
2023-03-30T07:21:19.399Z,17.75
2023-03-30T07:23:46.164Z,17.59
2023-03-30T07:26:12.603Z,17.29
2023-03-30T07:28:40.460Z,16.75
2023-03-30T07:31:13.263Z,17.12
2023-03-30T07:33:40.380Z,17.24
2023-03-30T07:36:07.272Z,17.99
2023-03-30T07:38:34.105Z,18.41
2023-03-30T07:41:00.771Z,18.73
2023-03-30T07:43:28.129Z,18.61
2023-03-30T07:45:55.240Z,19.30
2023-03-30T07:48:21.955Z,19.39
2023-03-30T07:50:48.499Z,18.73
2023-03-30T07:53:15.216Z,18.82
2023-03-30T07:55:42.316Z,18.15
2023-03-30T07:58:09.257Z,18.25
2023-03-30T08:00:35.809Z,18.48
2023-03-30T08:03:02.637Z,19.07
2023-03-30T08:05:29.423Z,18.74
2023-03-30T08:07:56.164Z,19.02
2023-03-30T08:10:22.723Z,19.51
2023-03-30T08:12:49.571Z,19.23
2023-03-30T08:15:16.172Z,19.70
2023-03-30T08:17:43.031Z,19.42
2023-03-30T08:20:11.677Z,19.00
2023-03-30T08:22:38.600Z,19.25
2023-03-30T08:25:05.533Z,19.13
2023-03-30T08:27:32.337Z,18.87
2023-03-30T08:29:59.240Z,19.59
2023-03-30T08:32:27.031Z,20.02
2023-03-30T08:34:54.929Z,20.40
2023-03-30T08:37:21.757Z,20.29
2023-03-30T08:39:49.165Z,20.55
2023-03-30T08:42:24.926Z,20.18
2023-03-30T08:44:56.023Z,20.49
2023-03-30T08:47:30.457Z,20.64
2023-03-30T08:50:19.137Z,20.62
2023-03-30T08:52:46.769Z,19.85
2023-03-30T08:55:21.993Z,21.04
2023-03-30T08:57:53.265Z,20.38
2023-03-30T09:00:29.365Z,21.42
2023-03-30T09:03:02.793Z,21.34
2023-03-30T09:05:36.282Z,21.14
2023-03-30T09:08:08.912Z,20.48
2023-03-30T09:10:37.826Z,19.84
2023-03-30T09:13:05.796Z,21.81
2023-03-30T09:15:39.647Z,20.60
2023-03-30T09:18:25.647Z,21.24
2023-03-30T09:20:54.592Z,20.40
2023-03-30T09:23:22.359Z,20.65
2023-03-30T09:25:49.357Z,20.85
2023-03-30T09:28:36.247Z,20.74
2023-03-30T09:31:14.244Z,20.70
2023-03-30T09:33:58.152Z,22.17
2023-03-30T09:36:38.210Z,22.04
2023-03-30T09:39:18.323Z,20.86
2023-03-30T09:42:05.304Z,20.26
2023-03-30T09:44:41.810Z,20.92
2023-03-30T09:47:16.493Z,20.82
2023-03-30T09:49:43.495Z,20.07
2023-03-30T09:52:18.923Z,20.59
2023-03-30T09:54:45.422Z,20.34
2023-03-30T09:57:41.337Z,19.93
2023-03-30T10:00:23.595Z,20.58
2023-03-30T10:02:58.303Z,20.78
2023-03-30T10:05:24.988Z,20.78
2023-03-30T10:08:19.567Z,20.68
2023-03-30T10:10:46.404Z,20.76
2023-03-30T10:13:17.515Z,20.17
2023-03-30T10:15:48.442Z,20.55
2023-03-30T10:18:18.723Z,20.73
2023-03-30T10:21:12.516Z,20.94
2023-03-30T10:23:41.868Z,21.03
2023-03-30T10:26:15.407Z,20.45
2023-03-30T10:28:53.485Z,20.00
2023-03-30T10:31:21.858Z,20.61
2023-03-30T10:33:49.623Z,21.05
2023-03-30T10:36:17.427Z,22.04
2023-03-30T10:38:44.776Z,22.09
2023-03-30T10:41:16.852Z,20.81
2023-03-30T10:43:44.873Z,20.63
2023-03-30T10:46:20.396Z,20.99
2023-03-30T10:48:58.383Z,22.30
2023-03-30T10:51:41.003Z,21.95
2023-03-30T10:54:10.523Z,21.51
2023-03-30T10:56:46.510Z,21.19
2023-03-30T10:59:22.471Z,21.73
2023-03-30T11:02:12.546Z,22.45
2023-03-30T11:04:47.377Z,22.19
2023-03-30T11:07:18.945Z,20.76
2023-03-30T11:09:50.054Z,20.44
2023-03-30T11:12:22.390Z,21.54
2023-03-30T11:14:52.155Z,21.43
2023-03-30T11:17:36.041Z,21.95
2023-03-30T11:20:16.166Z,22.60
2023-03-30T11:22:49.862Z,22.09
2023-03-30T11:25:31.605Z,21.31
2023-03-30T11:28:16.892Z,21.49
2023-03-30T11:30:53.221Z,22.00
2023-03-30T11:33:27.515Z,23.08
2023-03-30T11:36:02.023Z,22.82
2023-03-30T11:38:53.645Z,22.75
2023-03-30T11:41:40.893Z,23.69
2023-03-30T11:44:13.310Z,22.24
2023-03-30T11:46:51.685Z,22.78
2023-03-30T11:49:18.767Z,22.31
2023-03-30T11:52:01.278Z,21.68
2023-03-30T11:54:34.605Z,21.79
2023-03-30T11:57:25.886Z,21.74
2023-03-30T11:59:53.318Z,20.81
2023-03-30T12:02:27.586Z,21.57
2023-03-30T12:05:07.476Z,20.74
2023-03-30T12:07:43.462Z,21.39
2023-03-30T12:10:17.355Z,21.21
2023-03-30T12:12:44.981Z,21.63
2023-03-30T12:15:19.100Z,20.91
2023-03-30T12:17:51.962Z,20.98
2023-03-30T12:20:28.330Z,20.63
2023-03-30T12:23:05.286Z,20.09
2023-03-30T12:25:39.517Z,18.93
2023-03-30T12:28:10.269Z,16.50
2023-03-30T12:30:57.642Z,16.61
2023-03-30T12:33:43.956Z,17.19
2023-03-30T12:36:26.156Z,17.97
2023-03-30T12:39:00.688Z,19.14
2023-03-30T12:41:29.105Z,18.12
2023-03-30T12:44:06.819Z,19.14
2023-03-30T12:46:43.275Z,18.90
2023-03-30T12:49:24.181Z,19.47
2023-03-30T12:52:01.621Z,18.45
2023-03-30T12:54:31.538Z,18.61
2023-03-30T12:57:08.139Z,18.44
2023-03-30T12:59:43.947Z,18.90
2023-03-30T13:02:36.001Z,19.42
2023-03-30T13:05:03.160Z,18.90
2023-03-30T13:07:35.044Z,19.16
2023-03-30T13:10:24.203Z,19.61
2023-03-30T13:12:52.218Z,20.04
2023-03-30T13:15:35.925Z,19.36
2023-03-30T13:18:05.234Z,19.54
2023-03-30T13:20:37.319Z,20.12
2023-03-30T13:23:04.153Z,20.07
2023-03-30T13:25:39.746Z,21.15
2023-03-30T13:28:26.137Z,20.31
2023-03-30T13:30:54.590Z,21.08
2023-03-30T13:33:22.585Z,20.06
2023-03-30T13:36:09.676Z,20.53
2023-03-30T13:38:45.891Z,19.58
2023-03-30T13:41:45.683Z,18.49
2023-03-30T13:44:31.226Z,18.48
2023-03-30T13:47:17.040Z,20.04
2023-03-30T13:49:47.774Z,19.43
2023-03-30T13:52:19.515Z,20.09
2023-03-30T13:54:47.865Z,19.51
2023-03-30T13:57:19.306Z,19.96
2023-03-30T13:59:55.352Z,19.60
2023-03-30T14:02:27.440Z,20.44
2023-03-30T14:04:54.381Z,19.56
2023-03-30T14:07:23.703Z,19.66
2023-03-30T14:10:07.018Z,19.73
2023-03-30T14:12:36.497Z,20.84
2023-03-30T14:15:16.278Z,20.90
2023-03-30T14:17:47.871Z,19.33
2023-03-30T14:20:18.242Z,21.09
2023-03-30T14:22:46.660Z,20.18
2023-03-30T14:25:27.794Z,20.06
2023-03-30T14:27:56.695Z,20.15
2023-03-30T14:30:31.288Z,20.61
2023-03-30T14:33:11.685Z,20.24
2023-03-30T14:35:41.605Z,18.93
2023-03-30T14:38:16.782Z,18.50
2023-03-30T14:40:44.062Z,18.78
2023-03-30T14:43:15.034Z,19.16
2023-03-30T14:45:42.376Z,17.39
2023-03-30T14:48:17.468Z,18.19
2023-03-30T14:50:45.282Z,18.72
2023-03-30T14:53:14.028Z,19.37
2023-03-30T14:55:43.133Z,19.76
2023-03-30T14:58:14.105Z,19.21
2023-03-30T15:00:40.680Z,18.94
2023-03-30T15:03:12.469Z,19.82
2023-03-30T15:05:49.643Z,19.21
2023-03-30T15:08:20.956Z,18.19
2023-03-30T15:11:08.862Z,17.92
2023-03-30T15:13:40.161Z,18.78
2023-03-30T15:16:08.623Z,18.02
2023-03-30T15:18:37.869Z,17.11
2023-03-30T15:21:04.862Z,17.48
2023-03-30T15:23:38.019Z,16.89
2023-03-30T15:26:07.772Z,16.24
2023-03-30T15:28:43.086Z,16.53
2023-03-30T15:31:14.584Z,16.53
2023-03-30T15:33:44.064Z,15.90
2023-03-30T15:36:14.430Z,16.13
2023-03-30T15:38:48.432Z,15.77
2023-03-30T15:41:17.506Z,16.95
2023-03-30T15:43:59.268Z,16.47
2023-03-30T15:46:28.933Z,16.05
2023-03-30T15:48:58.917Z,17.19
2023-03-30T15:51:32.214Z,17.88
2023-03-30T15:53:59.657Z,17.35
2023-03-30T15:56:33.127Z,17.05
2023-03-30T15:59:00.450Z,16.84
2023-03-30T16:01:47.685Z,17.64
2023-03-30T16:04:15.998Z,17.84
2023-03-30T16:06:45.193Z,18.11
2023-03-30T16:09:13.974Z,19.20
2023-03-30T16:11:41.520Z,18.88
2023-03-30T16:14:11.833Z,18.73
2023-03-30T16:16:40.128Z,19.57
2023-03-30T16:19:11.605Z,19.52
2023-03-30T16:21:38.810Z,18.56
2023-03-30T16:24:06.582Z,19.40
2023-03-30T16:26:34.565Z,20.39
2023-03-30T16:29:02.335Z,19.42
2023-03-30T16:31:30.363Z,19.82
2023-03-30T16:33:57.711Z,19.69
2023-03-30T16:36:25.147Z,19.24
2023-03-30T16:38:52.510Z,19.15
2023-03-30T16:41:22.055Z,19.65
2023-03-30T16:43:51.270Z,19.91
2023-03-30T16:46:20.417Z,19.71
2023-03-30T16:48:52.543Z,19.79
2023-03-30T16:51:21.300Z,19.98
2023-03-30T16:53:51.273Z,19.91
2023-03-30T16:56:22.595Z,19.45
2023-03-30T16:58:50.824Z,18.87
2023-03-30T17:01:18.957Z,18.44
2023-03-30T17:03:47.735Z,19.44
2023-03-30T17:06:21.218Z,19.56
2023-03-30T17:08:55.631Z,18.75
2023-03-30T17:11:23.760Z,18.16
2023-03-30T17:13:51.946Z,18.80
2023-03-30T17:16:25.338Z,18.88
2023-03-30T17:19:00.767Z,18.45
2023-03-30T17:21:28.826Z,18.72
2023-03-30T17:24:02.085Z,17.87
2023-03-30T17:26:30.058Z,19.13
2023-03-30T17:29:02.707Z,18.01
2023-03-30T17:31:33.457Z,18.34
2023-03-30T17:34:06.921Z,19.01
2023-03-30T17:36:38.493Z,18.16
2023-03-30T17:39:12.778Z,18.59
2023-03-30T17:41:43.980Z,19.63
2023-03-30T17:44:27.681Z,19.17
2023-03-30T17:47:02.150Z,18.37
2023-03-30T17:49:32.552Z,18.50
2023-03-30T17:52:03.234Z,17.38
2023-03-30T17:54:31.017Z,16.51
2023-03-30T17:56:58.302Z,17.22
2023-03-30T17:59:34.360Z,17.86
2023-03-30T18:02:01.630Z,17.76
2023-03-30T18:04:35.954Z,18.45
2023-03-30T18:07:06.279Z,17.99
2023-03-30T18:09:35.560Z,17.98
2023-03-30T18:12:02.878Z,17.83
2023-03-30T18:14:30.343Z,17.87
2023-03-30T18:17:06.041Z,17.61
2023-03-30T18:19:34.448Z,18.15
2023-03-30T18:22:01.834Z,18.11
2023-03-30T18:24:28.930Z,18.15
2023-03-30T18:26:56.501Z,18.34
2023-03-30T18:29:24.836Z,18.58
2023-03-30T18:31:51.921Z,18.35
2023-03-30T18:34:19.834Z,18.32
2023-03-30T18:36:46.845Z,17.55
2023-03-30T18:39:19.715Z,17.88
2023-03-30T18:41:46.772Z,18.51
2023-03-30T18:44:13.412Z,17.57
2023-03-30T18:46:40.702Z,17.96
2023-03-30T18:49:13.245Z,18.11
2023-03-30T18:51:39.981Z,17.30
2023-03-30T18:54:07.508Z,17.52
2023-03-30T18:56:36.186Z,17.18
2023-03-30T18:59:06.383Z,17.82
2023-03-30T19:01:34.045Z,18.39
2023-03-30T19:04:03.001Z,18.76
2023-03-30T19:06:30.792Z,18.47
2023-03-30T19:09:00.180Z,18.46
2023-03-30T19:11:27.938Z,18.71
2023-03-30T19:13:55.342Z,18.01
2023-03-30T19:16:22.788Z,18.61
2023-03-30T19:18:50.115Z,18.19
2023-03-30T19:21:18.111Z,18.83
2023-03-30T19:23:46.537Z,18.62
2023-03-30T19:26:13.499Z,18.64
2023-03-30T19:28:41.214Z,18.32
2023-03-30T19:31:13.519Z,18.30
2023-03-30T19:33:40.716Z,17.23
2023-03-30T19:36:09.024Z,18.13
2023-03-30T19:38:38.507Z,18.19
2023-03-30T19:41:07.551Z,17.89
2023-03-30T19:43:35.293Z,18.18
2023-03-30T19:46:02.870Z,17.89
2023-03-30T19:48:35.249Z,18.50
2023-03-30T19:51:02.622Z,18.12
2023-03-30T19:53:31.888Z,18.28
2023-03-30T19:55:58.821Z,18.24
2023-03-30T19:58:32.010Z,18.15
2023-03-30T20:01:04.270Z,18.37
2023-03-30T20:03:31.985Z,18.21
2023-03-30T20:05:59.388Z,17.84
2023-03-30T20:08:26.889Z,18.04
2023-03-30T20:10:53.901Z,18.66
2023-03-30T20:13:24.541Z,18.15
2023-03-30T20:15:56.207Z,18.37
2023-03-30T20:18:23.631Z,18.46
2023-03-30T20:20:50.898Z,18.61
2023-03-30T20:23:18.012Z,18.40
2023-03-30T20:25:46.513Z,18.33
2023-03-30T20:28:14.519Z,18.69
2023-03-30T20:30:41.848Z,18.13
2023-03-30T20:33:11.138Z,18.46
2023-03-30T20:35:38.577Z,18.20
2023-03-30T20:38:08.563Z,18.47
2023-03-30T20:40:35.881Z,18.06
2023-03-30T20:43:03.633Z,17.86
2023-03-30T20:45:31.546Z,17.57
2023-03-30T20:47:59.988Z,18.13
2023-03-30T20:50:27.312Z,17.54
2023-03-30T20:52:56.412Z,17.58
2023-03-30T20:55:27.500Z,17.14
2023-03-30T20:57:55.425Z,17.15
2023-03-30T21:00:29.213Z,16.95
2023-03-30T21:02:56.570Z,17.47
2023-03-30T21:05:24.324Z,17.24
2023-03-30T21:07:56.906Z,16.76
2023-03-30T21:10:25.293Z,16.03
2023-03-30T21:12:52.912Z,16.54
2023-03-30T21:15:20.745Z,16.82
2023-03-30T21:17:48.126Z,16.93
2023-03-30T21:20:16.060Z,18.11
2023-03-30T21:22:44.357Z,18.07
2023-03-30T21:25:13.263Z,17.07
2023-03-30T21:27:41.839Z,16.51
2023-03-30T21:30:12.548Z,16.17
2023-03-30T21:32:41.027Z,17.34
2023-03-30T21:35:09.515Z,17.21
2023-03-30T21:37:37.033Z,17.68
2023-03-30T21:40:07.053Z,18.12
2023-03-30T21:42:35.526Z,17.66
2023-03-30T21:45:03.113Z,17.99
2023-03-30T21:47:30.640Z,17.59
2023-03-30T21:49:58.258Z,17.53
2023-03-30T21:52:26.165Z,17.66
2023-03-30T21:54:54.999Z,17.86
2023-03-30T21:57:22.449Z,17.32
2023-03-30T21:59:50.252Z,17.52
2023-03-30T22:02:17.621Z,17.84
2023-03-30T22:04:45.593Z,17.81
2023-03-30T22:07:13.291Z,17.95
2023-03-30T22:09:40.803Z,17.94
2023-03-30T22:12:09.115Z,17.65
2023-03-30T22:14:37.977Z,17.11
2023-03-30T22:17:05.328Z,17.99
2023-03-30T22:19:34.689Z,17.76
2023-03-30T22:22:02.102Z,17.61
2023-03-30T22:24:29.667Z,17.72
2023-03-30T22:26:57.352Z,17.28
2023-03-30T22:29:25.270Z,17.95
2023-03-30T22:31:56.097Z,17.63
2023-03-30T22:34:23.588Z,17.81
2023-03-30T22:36:51.236Z,17.48
2023-03-30T22:39:18.656Z,17.68
2023-03-30T22:41:46.754Z,17.12
2023-03-30T22:44:14.028Z,17.62
2023-03-30T22:46:41.970Z,17.83
2023-03-30T22:49:09.798Z,17.70
2023-03-30T22:51:38.556Z,17.12
2023-03-30T22:54:06.584Z,17.37
2023-03-30T22:56:34.218Z,18.32
2023-03-30T22:59:01.977Z,18.42
2023-03-30T23:01:32.654Z,16.58
2023-03-30T23:04:01.029Z,17.75
2023-03-30T23:06:28.643Z,17.13
2023-03-30T23:08:58.286Z,17.38
2023-03-30T23:11:26.653Z,17.91
2023-03-30T23:13:54.221Z,17.27
2023-03-30T23:16:21.965Z,17.97
2023-03-30T23:18:50.042Z,17.46
2023-03-30T23:21:19.586Z,17.61
2023-03-30T23:23:46.515Z,17.79
2023-03-30T23:26:14.008Z,17.67
2023-03-30T23:28:42.519Z,18.09
2023-03-30T23:31:14.181Z,17.54
2023-03-30T23:33:42.228Z,17.76
2023-03-30T23:36:13.941Z,17.86
2023-03-30T23:38:42.063Z,17.97
2023-03-30T23:41:10.120Z,17.96
2023-03-30T23:43:38.003Z,18.15
2023-03-30T23:46:06.036Z,18.16
2023-03-30T23:48:33.551Z,18.33
2023-03-30T23:51:01.339Z,17.85
2023-03-30T23:53:29.230Z,17.78
2023-03-30T23:55:58.368Z,17.81
2023-03-30T23:58:25.726Z,17.49
